sensor_id;sensor_type;location;lat;lon;timestamp;pressure;altitude;pressure_sealevel;temperature
25985;BMP280;66753;53.848;10.658;2023-04-03T00:00:04;103139.81;;;2.22
25985;BMP280;66753;53.848;10.658;2023-04-03T00:15:07;103123.31;;;1.91
25985;BMP280;66753;53.848;10.658;2023-04-03T00:30:09;103127.75;;;1.59
25985;BMP280;66753;53.848;10.658;2023-04-03T01:00:14;103141.56;;;1.22
25985;BMP280;66753;53.848;10.658;2023-04-03T01:15:22;103142.00;;;1.06
25985;BMP280;66753;53.848;10.658;2023-04-03T01:30:26;103147.63;;;1.03
25985;BMP280;66753;53.848;10.658;2023-04-03T01:45:28;103140.22;;;0.87
25985;BMP280;66753;53.848;10.658;2023-04-03T02:00:28;103139.22;;;0.75
25985;BMP280;66753;53.848;10.658;2023-04-03T02:15:29;103156.09;;;0.66
25985;BMP280;66753;53.848;10.658;2023-04-03T02:30:30;103154.88;;;0.62
25985;BMP280;66753;53.848;10.658;2023-04-03T02:45:30;103154.69;;;0.63
25985;BMP280;66753;53.848;10.658;2023-04-03T03:00:31;103149.25;;;0.45
25985;BMP280;66753;53.848;10.658;2023-04-03T03:15:31;103148.06;;;0.35
25985;BMP280;66753;53.848;10.658;2023-04-03T03:30:32;103161.53;;;0.32
25985;BMP280;66753;53.848;10.658;2023-04-03T03:45:32;103142.00;;;0.15
25985;BMP280;66753;53.848;10.658;2023-04-03T04:00:33;103142.38;;;-0.02
25985;BMP280;66753;53.848;10.658;2023-04-03T04:15:33;103148.78;;;-0.11
25985;BMP280;66753;53.848;10.658;2023-04-03T04:30:34;103150.59;;;-0.18
25985;BMP280;66753;53.848;10.658;2023-04-03T04:45:34;103170.00;;;-0.20
25985;BMP280;66753;53.848;10.658;2023-04-03T05:00:34;103193.09;;;-0.11
25985;BMP280;66753;53.848;10.658;2023-04-03T05:15:35;103211.41;;;0.03
25985;BMP280;66753;53.848;10.658;2023-04-03T05:30:36;103221.06;;;0.22
25985;BMP280;66753;53.848;10.658;2023-04-03T05:45:36;103254.06;;;0.81
25985;BMP280;66753;53.848;10.658;2023-04-03T06:00:36;103281.56;;;1.55
25985;BMP280;66753;53.848;10.658;2023-04-03T06:15:37;103312.81;;;2.32
25985;BMP280;66753;53.848;10.658;2023-04-03T06:30:38;103330.94;;;3.20
25985;BMP280;66753;53.848;10.658;2023-04-03T06:45:39;103360.41;;;4.13
25985;BMP280;66753;53.848;10.658;2023-04-03T07:00:39;103371.06;;;4.88
25985;BMP280;66753;53.848;10.658;2023-04-03T07:15:40;103394.06;;;5.62
25985;BMP280;66753;53.848;10.658;2023-04-03T07:30:44;103366.97;;;6.29
25985;BMP280;66753;53.848;10.658;2023-04-03T07:45:46;103379.06;;;6.91
25985;BMP280;66753;53.848;10.658;2023-04-03T08:00:49;103371.25;;;7.34
25985;BMP280;66753;53.848;10.658;2023-04-03T08:15:50;103366.25;;;7.81
25985;BMP280;66753;53.848;10.658;2023-04-03T08:30:51;103377.06;;;8.96
25985;BMP280;66753;53.848;10.658;2023-04-03T08:45:55;103352.56;;;9.15
25985;BMP280;66753;53.848;10.658;2023-04-03T09:01:00;103376.31;;;10.82
25985;BMP280;66753;53.848;10.658;2023-04-03T09:16:02;103387.09;;;11.30
25985;BMP280;66753;53.848;10.658;2023-04-03T09:46:24;103319.56;;;10.73
25985;BMP280;66753;53.848;10.658;2023-04-03T10:01:33;103283.63;;;9.92
25985;BMP280;66753;53.848;10.658;2023-04-03T10:16:35;103284.78;;;9.14
25985;BMP280;66753;53.848;10.658;2023-04-03T10:32:11;103259.09;;;9.05
25985;BMP280;66753;53.848;10.658;2023-04-03T10:47:21;103292.00;;;10.64
25985;BMP280;66753;53.848;10.658;2023-04-03T11:02:31;103238.00;;;10.25
25985;BMP280;66753;53.848;10.658;2023-04-03T11:17:37;103231.88;;;10.44
25985;BMP280;66753;53.848;10.658;2023-04-03T11:47:50;103195.78;;;11.02
25985;BMP280;66753;53.848;10.658;2023-04-03T12:02:50;103174.75;;;11.44
25985;BMP280;66753;53.848;10.658;2023-04-03T12:17:51;103179.72;;;11.22
25985;BMP280;66753;53.848;10.658;2023-04-03T12:33:03;103160.63;;;11.20
25985;BMP280;66753;53.848;10.658;2023-04-03T12:48:13;103154.38;;;11.34
25985;BMP280;66753;53.848;10.658;2023-04-03T13:03:24;103185.66;;;12.23
25985;BMP280;66753;53.848;10.658;2023-04-03T13:18:33;103160.19;;;11.93
25985;BMP280;66753;53.848;10.658;2023-04-03T13:33:35;103162.03;;;11.93
25985;BMP280;66753;53.848;10.658;2023-04-03T14:03:45;103143.47;;;12.35
25985;BMP280;66753;53.848;10.658;2023-04-03T14:18:48;103143.28;;;12.08
25985;BMP280;66753;53.848;10.658;2023-04-03T14:33:49;103119.28;;;11.66
25985;BMP280;66753;53.848;10.658;2023-04-03T14:48:51;103109.16;;;11.11
25985;BMP280;66753;53.848;10.658;2023-04-03T15:03:51;103106.38;;;10.49
25985;BMP280;66753;53.848;10.658;2023-04-03T15:18:52;103060.34;;;10.30
25985;BMP280;66753;53.848;10.658;2023-04-03T15:33:52;103066.09;;;10.47
25985;BMP280;66753;53.848;10.658;2023-04-03T15:48:53;103079.84;;;10.49
25985;BMP280;66753;53.848;10.658;2023-04-03T16:03:53;103076.63;;;10.57
25985;BMP280;66753;53.848;10.658;2023-04-03T16:18:55;103058.16;;;9.88
25985;BMP280;66753;53.848;10.658;2023-04-03T16:33:56;103074.84;;;9.89
25985;BMP280;66753;53.848;10.658;2023-04-03T16:48:56;103093.47;;;10.32
25985;BMP280;66753;53.848;10.658;2023-04-03T17:03:57;103133.94;;;11.35
25985;BMP280;66753;53.848;10.658;2023-04-03T17:18:57;103116.94;;;10.59
25985;BMP280;66753;53.848;10.658;2023-04-03T17:33:58;103094.88;;;10.15
25985;BMP280;66753;53.848;10.658;2023-04-03T17:49:01;103055.78;;;8.46
25985;BMP280;66753;53.848;10.658;2023-04-03T18:04:03;103041.44;;;7.39
25985;BMP280;66753;53.848;10.658;2023-04-03T18:19:04;103043.19;;;6.71
25985;BMP280;66753;53.848;10.658;2023-04-03T18:34:06;103033.28;;;6.13
25985;BMP280;66753;53.848;10.658;2023-04-03T18:49:07;103031.13;;;5.72
25985;BMP280;66753;53.848;10.658;2023-04-03T19:04:09;103031.06;;;5.34
25985;BMP280;66753;53.848;10.658;2023-04-03T19:19:09;103033.66;;;5.06
25985;BMP280;66753;53.848;10.658;2023-04-03T19:34:10;103005.38;;;4.80
25985;BMP280;66753;53.848;10.658;2023-04-03T19:49:10;102979.16;;;4.57
25985;BMP280;66753;53.848;10.658;2023-04-03T20:04:11;102966.66;;;4.36
25985;BMP280;66753;53.848;10.658;2023-04-03T20:19:12;102945.84;;;4.06
25985;BMP280;66753;53.848;10.658;2023-04-03T20:34:12;102939.50;;;3.68
25985;BMP280;66753;53.848;10.658;2023-04-03T20:49:13;102932.72;;;3.48
25985;BMP280;66753;53.848;10.658;2023-04-03T21:04:49;102929.06;;;3.26
25985;BMP280;66753;53.848;10.658;2023-04-03T21:19:50;102944.47;;;2.93
25985;BMP280;66753;53.848;10.658;2023-04-03T21:34:52;102946.84;;;2.54
25985;BMP280;66753;53.848;10.658;2023-04-03T21:49:52;102953.88;;;2.17
25985;BMP280;66753;53.848;10.658;2023-04-03T22:04:54;102956.38;;;1.88
25985;BMP280;66753;53.848;10.658;2023-04-03T22:19:55;102942.28;;;1.64
25985;BMP280;66753;53.848;10.658;2023-04-03T22:34:56;102942.88;;;1.41
25985;BMP280;66753;53.848;10.658;2023-04-03T22:49:56;102926.94;;;1.25
25985;BMP280;66753;53.848;10.658;2023-04-03T23:04:57;102937.44;;;1.12
25985;BMP280;66753;53.848;10.658;2023-04-03T23:20:00;102943.50;;;1.06
25985;BMP280;66753;53.848;10.658;2023-04-03T23:35:01;102943.75;;;0.98
25985;BMP280;66753;53.848;10.658;2023-04-03T23:50:03;102947.63;;;0.89
